Time;durP1;ratioP1;P1;durP2;ratioP2;P2;SDS_P1;SDS_P2;PMS_P1;PMS_P2;Temp;Humidity;BMP_temperature;BMP_pressure;BME280_temperature;BME280_humidity;BME280_pressure;Samples;Min_cycle;Max_cycle;Signal;HPM_P1;HPM_P2
2024/02/18 00:04:38;;;;;;;4.40;2.50;;;;;;;3.37;100.00;101030.94;436023;1256;140301;-57
2024/02/18 00:15:05;;;;;;;3.10;2.40;;;;;;;3.15;100.00;101040.51;436175;1253;139755;-56
2024/02/18 00:25:32;;;;;;;2.30;2.10;;;;;;;2.97;100.00;101066.11;437883;1254;140604;-58
2024/02/18 00:35:58;;;;;;;3.60;2.50;;;;;;;2.84;100.00;101068.98;437748;1253;139993;-55
2024/02/18 00:46:24;;;;;;;2.30;2.10;;;;;;;2.73;100.00;101079.80;437433;1256;140451;-68
2024/02/18 00:57:12;;;;;;;5.00;2.50;;;;;;;2.64;100.00;101080.38;436194;1256;139845;-70
2024/02/18 01:07:39;;;;;;;2.50;2.20;;;;;;;2.60;100.00;101091.13;437294;1257;140608;-54
2024/02/18 01:18:05;;;;;;;2.40;1.90;;;;;;;2.57;100.00;101102.55;437506;1256;139690;-55
2024/02/18 01:28:32;;;;;;;1.80;1.70;;;;;;;2.57;100.00;101098.75;438373;1260;140601;-56
2024/02/18 01:38:57;;;;;;;;;;;;;;;2.52;100.00;101095.50;437542;1257;140573;-55
2024/02/18 01:49:27;;;;;;;1.40;1.30;;;;;;;2.47;100.00;101100.02;436404;1257;126773;-57
2024/02/18 01:59:53;;;;;;;1.30;1.20;;;;;;;2.42;100.00;101103.85;437711;1257;140618;-58
2024/02/18 02:10:21;;;;;;;1.50;1.20;;;;;;;2.35;100.00;101114.44;437974;1252;139875;-57
2024/02/18 02:20:50;;;;;;;1.10;1.00;;;;;;;2.28;100.00;101114.13;437666;1255;140002;-56
2024/02/18 02:31:16;;;;;;;1.10;0.90;;;;;;;2.24;100.00;101121.40;436799;1257;139695;-56
2024/02/18 02:41:46;;;;;;;0.70;0.50;;;;;;;2.19;100.00;101118.66;436083;1256;139852;-56
2024/02/18 02:52:12;;;;;;;0.60;0.60;;;;;;;2.14;100.00;101128.70;436154;1256;139933;-56
2024/02/18 03:02:37;;;;;;;;;;;;;;;2.10;100.00;101136.33;437684;1260;140251;-54
2024/02/18 03:13:06;;;;;;;0.90;0.80;;;;;;;2.09;100.00;101143.92;437072;1257;127568;-55
2024/02/18 03:23:34;;;;;;;1.30;1.20;;;;;;;2.09;100.00;101146.88;437313;1257;139539;-70
2024/02/18 03:34:03;;;;;;;1.00;1.00;;;;;;;2.08;100.00;101156.38;436212;1254;139715;-69
2024/02/18 03:44:30;;;;;;;1.50;1.40;;;;;;;2.01;100.00;101162.45;437712;1257;140752;-68
2024/02/18 03:54:58;;;;;;;0.90;0.90;;;;;;;1.95;100.00;101172.30;439895;1251;139959;-58
2024/02/18 04:05:27;;;;;;;1.60;1.40;;;;;;;1.93;100.00;101178.17;436090;1254;140464;-68
2024/02/18 04:15:55;;;;;;;1.40;1.30;;;;;;;1.89;100.00;101181.14;437181;1257;140550;-68
2024/02/18 04:26:20;;;;;;;;;;;;;;;1.84;99.97;101184.25;436246;1256;140067;-68
2024/02/18 04:36:50;;;;;;;2.40;1.60;;;;;;;1.79;100.00;101184.95;436236;1257;126117;-57
2024/02/18 04:47:18;;;;;;;2.40;1.30;;;;;;;1.75;99.78;101186.69;438422;1252;141667;-56
2024/02/18 04:57:45;;;;;;;1.40;1.30;;;;;;;1.68;99.47;101184.98;437617;1256;139535;-56
2024/02/18 05:08:13;;;;;;;2.70;1.30;;;;;;;1.62;99.10;101182.91;439621;1256;139516;-56
2024/02/18 05:18:39;;;;;;;1.50;1.30;;;;;;;1.57;99.20;101184.46;437153;1256;139891;-68
2024/02/18 05:29:07;;;;;;;1.10;1.00;;;;;;;1.49;98.89;101186.20;438264;1252;140150;-58
2024/02/18 05:39:35;;;;;;;1.70;1.10;;;;;;;1.42;99.01;101190.70;436279;1256;139953;-57
2024/02/18 05:50:02;;;;;;;1.90;1.60;;;;;;;1.38;98.72;101198.80;437905;1253;139452;-68
2024/02/18 06:00:28;;;;;;;1.40;1.20;;;;;;;1.34;98.61;101213.83;435839;1255;140441;-57
2024/02/18 06:10:59;;;;;;;1.60;1.20;;;;;;;1.33;98.62;101227.80;436807;1257;139734;-54
2024/02/18 06:21:26;;;;;;;1.20;1.10;;;;;;;1.39;98.82;101242.64;436998;1255;139784;-53
2024/02/18 06:31:52;;;;;;;1.50;1.20;;;;;;;1.47;98.54;101241.26;440478;1256;139355;-68
2024/02/18 06:42:19;;;;;;;1.10;1.00;;;;;;;1.52;98.25;101246.09;432922;1256;5080909;-68
2024/02/18 06:52:45;;;;;;;1.30;1.20;;;;;;;1.68;98.14;101250.58;436713;1253;139894;-69
2024/02/18 07:03:12;;;;;;;1.50;1.40;;;;;;;1.84;97.54;101262.48;438865;1253;139513;-69
2024/02/18 07:13:38;;;;;;;2.10;1.70;;;;;;;2.01;97.06;101260.21;437506;1256;139511;-58
2024/02/18 07:24:06;;;;;;;2.00;1.90;;;;;;;2.24;96.33;101273.30;435981;1250;140079;-57
2024/02/18 07:34:32;;;;;;;1.60;1.50;;;;;;;2.51;95.58;101278.73;436305;1257;141311;-67
2024/02/18 07:44:58;;;;;;;;;;;;;;;2.75;94.32;101274.34;437642;1253;140139;-56
2024/02/18 07:55:28;;;;;;;2.70;2.50;;;;;;;3.00;93.68;101273.52;438097;1256;125858;-55
2024/02/18 08:05:56;;;;;;;4.50;3.50;;;;;;;3.18;92.66;101270.29;441341;1253;139522;-54
2024/02/18 08:16:26;;;;;;;4.20;2.20;;;;;;;3.43;92.28;101277.73;436717;1255;139874;-55
2024/02/18 08:26:53;;;;;;;2.40;1.80;;;;;;;3.63;91.55;101281.40;436712;1256;139465;-55
2024/02/18 08:37:25;;;;;;;2.20;1.90;;;;;;;3.74;90.35;101284.95;435948;1253;139629;-54
2024/02/18 08:47:51;;;;;;;2.00;1.80;;;;;;;3.90;90.21;101270.79;438452;1257;140224;-55
2024/02/18 08:58:17;;;;;;;3.20;2.10;;;;;;;4.41;90.22;101261.42;436329;1256;139504;-55
2024/02/18 09:08:44;;;;;;;2.70;2.50;;;;;;;4.91;89.26;101258.70;436927;1253;139711;-57
2024/02/18 09:19:10;;;;;;;7.20;2.70;;;;;;;5.64;88.36;101263.52;437371;1252;140090;-56
2024/02/18 09:29:37;;;;;;;2.80;2.50;;;;;;;6.01;86.67;101272.64;436202;1253;140473;-68
2024/02/18 09:40:04;;;;;;;2.40;2.20;;;;;;;6.19;85.89;101281.02;443792;1254;139478;-56
2024/02/18 09:50:35;;;;;;;3.30;2.80;;;;;;;6.27;84.84;101280.70;435632;1253;139141;-55
2024/02/18 10:01:04;;;;;;;3.10;2.90;;;;;;;6.28;83.93;101261.38;437099;1253;140005;-69
2024/02/18 10:11:32;;;;;;;3.30;3.00;;;;;;;6.36;83.07;101262.27;437270;1257;139704;-68
2024/02/18 10:22:00;;;;;;;2.40;2.20;;;;;;;6.18;81.77;101257.73;435677;1256;139836;-59
2024/02/18 10:32:30;;;;;;;3.60;3.30;;;;;;;6.39;82.05;101239.95;437109;1253;138815;-58
2024/02/18 10:43:01;;;;;;;4.20;3.60;;;;;;;6.67;80.81;101225.80;441221;1253;138893;-55
2024/02/18 10:53:35;;;;;;;3.50;2.80;;;;;;;6.46;79.85;101207.79;438118;1253;138984;-55
2024/02/18 11:04:06;;;;;;;4.40;3.50;;;;;;;6.04;79.36;101188.78;437867;1256;139107;-69
2024/02/18 11:14:34;;;;;;;4.50;3.80;;;;;;;5.76;79.38;101158.37;436697;1256;139218;-68
2024/02/18 11:25:00;;;;;;;5.30;4.60;;;;;;;5.71;79.74;101139.52;436129;1256;139150;-71
2024/02/18 11:35:26;;;;;;;4.70;4.20;;;;;;;5.53;79.73;101128.38;437016;1257;139627;-59
2024/02/18 11:45:56;;;;;;;4.00;3.60;;;;;;;5.23;79.29;101118.84;437247;1255;139305;-56
2024/02/18 11:56:23;;;;;;;6.80;3.40;;;;;;;4.98;79.65;101115.79;437964;1255;138914;-67
2024/02/18 12:06:51;;;;;;;5.30;3.00;;;;;;;4.98;79.82;101090.78;437800;1253;138986;-67
2024/02/18 12:17:18;;;;;;;4.50;3.60;;;;;;;4.95;79.91;101077.13;436290;1256;139196;-58
2024/02/18 12:27:44;;;;;;;4.20;3.80;;;;;;;5.09;79.97;101073.08;438064;1256;138744;-58
2024/02/18 12:38:16;;;;;;;3.90;3.10;;;;;;;5.08;79.47;101059.73;437496;1256;139094;-69
2024/02/18 12:48:44;;;;;;;6.90;3.80;;;;;;;5.02;79.51;101047.16;437504;1256;140902;-67
2024/02/18 12:59:11;;;;;;;4.90;4.50;;;;;;;4.93;79.69;101039.16;438718;1256;140186;-67
2024/02/18 13:09:39;;;;;;;4.60;4.20;;;;;;;4.82;79.85;101034.33;436572;1256;139541;-58
2024/02/18 13:20:09;;;;;;;4.00;3.60;;;;;;;4.83;79.87;101027.34;436447;1251;139856;-60
2024/02/18 13:30:35;;;;;;;4.40;3.70;;;;;;;4.73;79.09;101026.30;436855;1253;138580;-61
2024/02/18 13:41:02;;;;;;;4.60;4.30;;;;;;;4.39;79.39;101005.34;442522;1259;139330;-61
2024/02/18 13:51:27;;;;;;;;;;;;;;;4.18;79.71;100993.34;439762;1258;140134;-57
2024/02/18 14:01:55;;;;;;;4.60;4.20;;;;;;;4.11;80.15;100980.45;435902;1253;125465;-58
2024/02/18 14:12:23;;;;;;;5.20;4.50;;;;;;;4.18;80.18;100972.89;435924;1253;140014;-59
2024/02/18 14:22:50;;;;;;;4.90;4.50;;;;;;;4.24;80.37;100960.84;435980;1257;138736;-58
2024/02/18 14:33:15;;;;;;;;;;;;;;;4.22;80.12;100950.98;437063;1253;138946;-59
2024/02/18 14:43:44;;;;;;;4.50;4.10;;;;;;;4.17;80.21;100935.84;436442;1255;125463;-69
2024/02/18 14:54:10;;;;;;;4.60;4.00;;;;;;;4.10;80.29;100916.35;438588;1256;139725;-58
2024/02/18 15:04:37;;;;;;;4.50;4.10;;;;;;;3.99;80.83;100900.92;437767;1256;138826;-59
2024/02/18 15:15:07;;;;;;;5.40;4.30;;;;;;;3.69;80.57;100889.06;437558;1253;138946;-60
2024/02/18 15:25:35;;;;;;;5.40;4.90;;;;;;;3.30;81.26;100881.80;440220;1256;139207;-57
2024/02/18 15:36:01;;;;;;;6.20;5.70;;;;;;;2.89;81.88;100886.10;436119;1252;139603;-58
2024/02/18 15:46:28;;;;;;;7.60;6.50;;;;;;;2.50;82.32;100876.83;437884;1256;139756;-57
2024/02/18 15:56:54;;;;;;;6.40;5.70;;;;;;;2.09;82.56;100862.34;437653;1256;138934;-57
2024/02/18 16:07:22;;;;;;;8.70;6.80;;;;;;;1.69;83.35;100861.61;436544;1254;139143;-58
2024/02/18 16:17:49;;;;;;;7.20;6.50;;;;;;;1.32;84.22;100848.71;438907;1253;139943;-57
2024/02/18 16:28:15;;;;;;;9.50;8.50;;;;;;;1.03;84.97;100840.41;437618;1255;139685;-70
2024/02/18 16:38:42;;;;;;;22.40;17.50;;;;;;;0.81;86.02;100831.70;437823;1256;140432;-59
2024/02/18 16:49:13;;;;;;;20.60;16.70;;;;;;;0.63;86.94;100830.91;437857;1251;140241;-57
2024/02/18 16:59:40;;;;;;;17.60;13.50;;;;;;;0.48;87.78;100824.91;436820;1253;139822;-61
2024/02/18 17:10:10;;;;;;;18.30;14.60;;;;;;;0.38;88.65;100814.09;438796;1256;139834;-59
2024/02/18 17:20:37;;;;;;;18.00;13.30;;;;;;;0.35;89.39;100795.66;438741;1256;139840;-59
2024/02/18 17:31:02;;;;;;;;;;;;;;;0.37;90.11;100771.71;438407;1254;140296;-58
2024/02/18 17:41:28;;;;;;;16.40;12.90;;;;;;;0.31;90.40;100761.55;437039;1257;126926;-58
2024/02/18 17:51:54;;;;;;;18.00;14.70;;;;;;;0.26;90.88;100753.82;436833;1256;140151;-60
2024/02/18 18:02:23;;;;;;;19.30;16.00;;;;;;;0.16;91.26;100738.52;438989;1256;139857;-57
2024/02/18 18:12:52;;;;;;;15.20;12.60;;;;;;;0.10;91.86;100727.52;436284;1256;140297;-56
2024/02/18 18:23:19;;;;;;;14.40;12.10;;;;;;;0.01;92.13;100695.33;438996;1254;139857;-57
2024/02/18 18:33:46;;;;;;;15.70;12.70;;;;;;;-0.14;92.52;100678.85;438723;1256;140543;-62
2024/02/18 18:44:13;;;;;;;17.90;13.70;;;;;;;-0.27;92.96;100648.92;435288;1254;5104919;-57
2024/02/18 18:54:41;;;;;;;20.40;14.20;;;;;;;-0.33;93.16;100637.08;438290;1258;140644;-58
2024/02/18 19:05:10;;;;;;;13.60;10.80;;;;;;;-0.34;93.54;100613.67;437739;1263;140207;-59
2024/02/18 19:15:36;;;;;;;9.80;8.80;;;;;;;-0.30;93.58;100599.91;438466;1256;140493;-60
2024/02/18 19:26:03;;;;;;;12.20;10.10;;;;;;;-0.22;93.60;100591.27;436280;1258;139550;-62
2024/02/18 19:36:29;;;;;;;14.00;10.10;;;;;;;-0.24;93.69;100583.02;438269;1257;141445;-62
2024/02/18 19:46:56;;;;;;;14.50;11.00;;;;;;;-0.29;93.75;100579.77;437692;1257;140366;-61
2024/02/18 19:57:22;;;;;;;14.10;10.80;;;;;;;-0.33;94.03;100564.98;437326;1257;140184;-70
2024/02/18 20:07:49;;;;;;;18.30;12.20;;;;;;;-0.33;94.27;100550.35;436797;1256;141091;-68
2024/02/18 20:18:15;;;;;;;13.30;10.30;;;;;;;-0.30;94.56;100536.39;440704;1263;140324;-61
2024/02/18 20:28:40;;;;;;;;;;;;;;;-0.22;94.69;100529.66;438841;1257;140502;-59
2024/02/18 20:39:08;;;;;;;14.80;10.70;;;;;;;-0.19;94.95;100511.40;436856;1255;127682;-61
2024/02/18 20:49:35;;;;;;;20.40;14.50;;;;;;;-0.19;94.94;100500.04;438835;1256;140162;-59
2024/02/18 21:00:03;;;;;;;16.90;11.50;;;;;;;-0.19;95.47;100487.48;436701;1256;140046;-63
2024/02/18 21:10:30;;;;;;;18.30;13.00;;;;;;;-0.18;95.63;100472.34;436867;1261;140409;-60
2024/02/18 21:20:58;;;;;;;12.90;11.30;;;;;;;-0.17;95.89;100463.73;437548;1256;140352;-58
2024/02/18 21:31:25;;;;;;;14.50;12.40;;;;;;;-0.22;95.98;100449.99;437400;1254;140816;-58
2024/02/18 21:41:52;;;;;;;14.50;10.80;;;;;;;-0.35;96.33;100436.97;437271;1257;140680;-59
2024/02/18 21:52:19;;;;;;;11.70;9.60;;;;;;;-0.50;96.74;100427.93;438276;1257;140497;-58
2024/02/18 22:02:46;;;;;;;13.40;10.30;;;;;;;-0.62;97.25;100423.70;438718;1256;139785;-59
2024/02/18 22:13:13;;;;;;;16.60;11.80;;;;;;;-0.73;97.60;100419.96;438968;1257;140602;-58
2024/02/18 22:23:39;;;;;;;12.90;9.60;;;;;;;-0.83;98.06;100401.94;438771;1257;139989;-65
2024/02/18 22:34:04;;;;;;;;;;;;;;;-0.94;98.49;100393.23;437514;1256;139839;-60
2024/02/18 22:44:30;;;;;;;13.80;10.30;;;;;;;-1.05;99.12;100382.77;437825;1256;127782;-59
2024/02/18 22:54:56;;;;;;;18.20;13.60;;;;;;;-1.14;99.40;100360.81;437164;1257;141419;-61
2024/02/18 23:05:23;;;;;;;15.30;11.30;;;;;;;-1.21;99.79;100346.58;437769;1255;141055;-60
2024/02/18 23:15:49;;;;;;;13.00;10.30;;;;;;;-1.28;99.94;100332.15;441277;1256;141100;-60
2024/02/18 23:26:17;;;;;;;14.00;11.60;;;;;;;-1.36;100.00;100326.52;438200;1256;140204;-60
2024/02/18 23:36:44;;;;;;;12.70;10.20;;;;;;;-1.41;100.00;100314.85;438120;1256;140772;-61
2024/02/18 23:47:10;;;;;;;12.20;9.50;;;;;;;-1.46;100.00;100300.61;437971;1254;139825;-58
2024/02/18 23:57:36;;;;;;;12.70;10.50;;;;;;;-1.50;100.00;100285.67;438036;1257;139663;-63
